Cherry Lane, North Carolina
Current Conditions -  °F | °C
As of 6:55 AM on Thursday 27 Nov 2014 (Local Time) from KUKF Reporting Station
Drizzle Drizzle  
Wind Chill: 36°   Ceiling: 2100
Heat Index: 36°   Visibility: 10mi
Dew Point: 34°   Wind: 0mph
Humidity: 93%   Direction: NA
Pressure: 30.04"   Gusts: NA
Location:  36.4437°N, 81.0178°W
Report Text: KUKF 271155Z AUTO 00000KT 10SM -DZ SCT013 BKN021 OVC025 02/01 A3004 RMK AO2 P0001
Loading
Personal Weather Stations






























Interactive Weather Map New forecast layout! Learn more

10-Day Weather Forecast

Advertisements
Track Severe Weather on mobile